createdAt,value
2019-04-01T00:01:21.466Z,9.10
2019-04-01T00:03:49.951Z,9.10
2019-04-01T00:06:18.327Z,9.10
2019-04-01T00:08:46.913Z,9.10
2019-04-01T00:11:15.333Z,9.20
2019-04-01T00:13:43.812Z,9.20
2019-04-01T00:16:12.286Z,9.20
2019-04-01T00:18:40.852Z,9.20
2019-04-01T00:21:09.203Z,9.10
2019-04-01T00:23:37.593Z,9.10
2019-04-01T00:26:05.966Z,9.10
2019-04-01T00:28:34.681Z,9.10
2019-04-01T00:31:03.006Z,9.00
2019-04-01T00:33:31.358Z,8.90
2019-04-01T00:36:00.010Z,8.90
2019-04-01T00:38:28.525Z,8.90
2019-04-01T00:40:56.837Z,8.90
2019-04-01T00:43:27.051Z,8.90
2019-04-01T00:45:59.761Z,8.90
2019-04-01T00:48:28.174Z,8.90
2019-04-01T00:50:56.500Z,8.80
2019-04-01T00:53:25.019Z,8.80
2019-04-01T00:55:53.639Z,8.80
2019-04-01T00:58:22.423Z,8.70
2019-04-01T01:00:50.822Z,8.60
2019-04-01T01:03:19.159Z,8.50
2019-04-01T01:05:47.488Z,8.40
2019-04-01T01:08:16.075Z,8.40
2019-04-01T01:10:44.521Z,8.50
2019-04-01T01:13:13.105Z,8.40
2019-04-01T01:15:41.594Z,8.40
2019-04-01T01:18:09.918Z,8.40
2019-04-01T01:20:38.502Z,8.50
2019-04-01T01:23:07.152Z,8.40
2019-04-01T01:25:35.662Z,8.50
2019-04-01T01:28:03.974Z,8.50
2019-04-01T01:30:32.482Z,8.40
2019-04-01T01:33:01.165Z,8.40
2019-04-01T01:35:29.498Z,8.40
2019-04-01T01:37:57.818Z,8.40
2019-04-01T01:40:26.171Z,8.40
2019-04-01T01:42:54.481Z,8.30
2019-04-01T01:45:22.838Z,8.30
2019-04-01T01:47:51.188Z,8.30
2019-04-01T01:50:19.517Z,8.30
2019-04-01T01:52:48.037Z,8.20
2019-04-01T01:55:16.436Z,8.20
2019-04-01T01:57:44.775Z,8.20
2019-04-01T02:00:13.844Z,8.20
2019-04-01T02:02:42.260Z,8.10
2019-04-01T02:05:10.915Z,8.10
2019-04-01T02:07:39.428Z,8.00
2019-04-01T02:10:07.881Z,7.90
2019-04-01T02:12:36.401Z,7.80
2019-04-01T02:15:06.695Z,7.80
2019-04-01T02:17:35.230Z,7.80
2019-04-01T02:20:04.177Z,7.70
2019-04-01T02:22:32.838Z,7.80
2019-04-01T02:25:01.625Z,7.70
2019-04-01T02:27:30.132Z,7.50
2019-04-01T02:29:58.604Z,7.50
2019-04-01T02:32:27.113Z,7.50
2019-04-01T02:34:55.671Z,7.60
2019-04-01T02:37:24.164Z,7.70
2019-04-01T02:39:52.555Z,7.70
2019-04-01T02:42:21.038Z,7.60
2019-04-01T02:44:49.379Z,7.50
2019-04-01T02:47:17.700Z,7.30
2019-04-01T02:49:46.196Z,7.10
2019-04-01T02:52:14.699Z,7.10
2019-04-01T02:54:43.034Z,7.10
2019-04-01T02:57:11.346Z,7.00
2019-04-01T02:59:39.922Z,6.90
2019-04-01T03:02:08.329Z,6.90
2019-04-01T03:04:36.710Z,6.90
2019-04-01T03:07:05.433Z,6.90
2019-04-01T03:09:33.852Z,7.10
2019-04-01T03:12:02.171Z,7.10
2019-04-01T03:14:30.502Z,7.10
2019-04-01T03:16:58.981Z,7.00
2019-04-01T03:19:27.626Z,6.90
2019-04-01T03:21:55.957Z,6.80
2019-04-01T03:24:27.525Z,6.80
2019-04-01T03:26:56.035Z,6.80
2019-04-01T03:29:24.352Z,6.80
2019-04-01T03:31:52.951Z,6.80
2019-04-01T03:34:21.273Z,6.80
2019-04-01T03:36:49.770Z,6.80
2019-04-01T03:39:18.168Z,6.80
2019-04-01T03:41:46.514Z,6.80
2019-04-01T03:44:15.002Z,6.80
2019-04-01T03:46:43.399Z,6.70
2019-04-01T03:49:11.914Z,6.70
2019-04-01T03:51:40.312Z,6.80
2019-04-01T03:54:08.815Z,6.80
2019-04-01T03:56:37.217Z,6.90
2019-04-01T03:59:05.713Z,6.90
2019-04-01T04:01:34.103Z,6.70
2019-04-01T04:04:02.443Z,6.70
2019-04-01T04:06:30.785Z,6.70
2019-04-01T04:09:01.926Z,6.70
2019-04-01T04:11:29.490Z,6.70
2019-04-01T04:13:57.830Z,6.70
2019-04-01T04:16:26.316Z,6.60
2019-04-01T04:18:54.823Z,6.50
2019-04-01T04:21:24.213Z,6.60
2019-04-01T04:23:52.918Z,6.50
2019-04-01T04:26:21.242Z,6.50
2019-04-01T04:28:49.641Z,6.40
2019-04-01T04:31:17.978Z,6.40
2019-04-01T04:33:46.483Z,6.40
2019-04-01T04:36:14.895Z,6.40
2019-04-01T04:38:43.364Z,6.30
2019-04-01T04:41:11.878Z,6.40
2019-04-01T04:43:40.262Z,6.40
2019-04-01T04:46:08.631Z,6.30
2019-04-01T04:48:37.120Z,6.40
2019-04-01T04:51:05.635Z,6.40
2019-04-01T04:53:34.180Z,6.30
2019-04-01T04:56:03.166Z,6.30
2019-04-01T04:58:31.648Z,6.30
2019-04-01T05:01:00.089Z,6.30
2019-04-01T05:03:28.479Z,6.20
2019-04-01T05:05:57.066Z,6.20
2019-04-01T05:08:25.808Z,6.20
2019-04-01T05:10:56.856Z,6.20
2019-04-01T05:13:25.376Z,6.20
2019-04-01T05:15:54.001Z,6.30
2019-04-01T05:18:22.433Z,6.30
2019-04-01T05:20:50.838Z,6.20
2019-04-01T05:23:19.185Z,6.20
2019-04-01T05:25:47.554Z,6.20
2019-04-01T05:28:15.949Z,6.30
2019-04-01T05:30:53.730Z,6.20
2019-04-01T05:33:22.346Z,6.20
2019-04-01T05:35:59.936Z,6.30
2019-04-01T05:38:28.509Z,6.40
2019-04-01T05:40:57.008Z,6.40
2019-04-01T05:43:25.598Z,6.40
2019-04-01T05:45:55.823Z,6.50
2019-04-01T05:48:26.148Z,6.50
2019-04-01T05:50:54.470Z,6.50
2019-04-01T05:53:22.899Z,6.50
2019-04-01T05:55:52.893Z,6.60
2019-04-01T05:58:21.473Z,6.60
2019-04-01T06:00:54.461Z,6.70
2019-04-01T06:03:23.158Z,6.70
2019-04-01T06:05:51.549Z,6.80
2019-04-01T06:08:20.076Z,6.80
2019-04-01T06:10:48.639Z,6.90
2019-04-01T06:13:17.050Z,7.00
2019-04-01T06:15:45.482Z,7.00
2019-04-01T06:18:13.987Z,7.00
2019-04-01T06:20:42.662Z,7.10
2019-04-01T06:23:11.310Z,7.10
2019-04-01T06:25:39.990Z,7.10
2019-04-01T06:28:08.584Z,7.20
2019-04-01T06:30:37.102Z,7.30
2019-04-01T06:33:05.648Z,7.40
2019-04-01T06:35:34.267Z,7.70
2019-04-01T06:38:02.749Z,7.80
2019-04-01T06:40:31.425Z,7.80
2019-04-01T06:42:59.758Z,7.80
2019-04-01T06:45:28.156Z,7.80
2019-04-01T06:47:56.537Z,7.80
2019-04-01T06:50:25.038Z,7.90
2019-04-01T06:52:53.520Z,8.00
2019-04-01T06:55:22.196Z,8.10
2019-04-01T06:57:50.699Z,8.20
2019-04-01T07:00:19.266Z,8.30
2019-04-01T07:02:47.752Z,8.30
2019-04-01T07:05:16.063Z,8.30
2019-04-01T07:07:44.578Z,8.40
2019-04-01T07:10:13.062Z,8.40
2019-04-01T07:12:41.414Z,8.50
2019-04-01T07:15:09.824Z,8.50
2019-04-01T07:17:38.407Z,8.60
2019-04-01T07:20:08.787Z,8.70
2019-04-01T07:22:37.157Z,8.80
2019-04-01T07:25:05.702Z,8.90
2019-04-01T07:27:34.047Z,9.00
2019-04-01T07:30:02.637Z,8.90
2019-04-01T07:32:31.186Z,9.00
2019-04-01T07:34:59.624Z,9.00
2019-04-01T07:37:28.087Z,9.10
2019-04-01T07:39:56.431Z,9.20
2019-04-01T07:42:24.785Z,9.30
2019-04-01T07:44:53.371Z,9.40
2019-04-01T07:47:21.964Z,9.40
2019-04-01T07:49:50.547Z,9.50
2019-04-01T07:52:19.052Z,9.60
2019-04-01T07:54:47.651Z,9.70
2019-04-01T07:57:16.139Z,9.80
2019-04-01T07:59:44.502Z,9.90
2019-04-01T08:02:12.892Z,9.90
2019-04-01T08:04:41.406Z,10.00
2019-04-01T08:07:13.115Z,10.10
2019-04-01T08:09:40.118Z,10.20
2019-04-01T08:12:08.619Z,10.30
2019-04-01T08:14:37.294Z,10.40
2019-04-01T08:17:05.709Z,10.50
2019-04-01T08:19:34.203Z,10.60
2019-04-01T08:22:02.973Z,10.70
2019-04-01T08:24:31.454Z,10.70
2019-04-01T08:27:00.303Z,10.70
2019-04-01T08:29:30.536Z,10.70
2019-04-01T08:31:58.674Z,10.80
2019-04-01T08:34:27.040Z,10.90
2019-04-01T08:36:55.722Z,11.00
2019-04-01T08:39:24.117Z,11.10
2019-04-01T08:41:52.456Z,11.10
2019-04-01T08:44:20.775Z,11.20
2019-04-01T08:46:49.274Z,11.30
2019-04-01T08:49:17.848Z,11.40
2019-04-01T08:51:46.351Z,11.40
2019-04-01T08:54:15.015Z,11.30
2019-04-01T08:56:43.446Z,11.20
2019-04-01T08:59:11.823Z,11.30
2019-04-01T09:01:40.333Z,11.30
2019-04-01T09:04:08.743Z,11.40
2019-04-01T09:06:37.229Z,11.60
2019-04-01T09:09:06.517Z,11.80
2019-04-01T09:11:38.190Z,11.90
2019-04-01T09:14:05.453Z,12.10
2019-04-01T09:16:34.816Z,12.20
2019-04-01T09:19:03.949Z,12.20
2019-04-01T09:21:32.490Z,12.20
2019-04-01T09:24:00.864Z,12.30
2019-04-01T09:26:29.347Z,12.50
2019-04-01T09:28:57.747Z,12.60
2019-04-01T09:31:26.239Z,12.60
2019-04-01T09:33:54.758Z,12.60
2019-04-01T09:36:23.101Z,12.60
2019-04-01T09:38:51.438Z,12.60
2019-04-01T09:41:19.901Z,12.70
2019-04-01T09:43:48.318Z,12.70
2019-04-01T09:46:16.705Z,12.80
2019-04-01T09:48:45.163Z,12.90
2019-04-01T09:51:13.654Z,12.90
2019-04-01T09:53:42.315Z,13.00
2019-04-01T09:56:10.918Z,13.10
2019-04-01T09:58:39.421Z,13.20
2019-04-01T10:01:07.921Z,13.20
2019-04-01T10:03:36.411Z,13.20
2019-04-01T10:06:04.839Z,13.20
2019-04-01T10:08:42.099Z,13.20
2019-04-01T10:11:03.627Z,13.30
2019-04-01T10:13:32.293Z,13.30
2019-04-01T10:16:00.808Z,13.50
2019-04-01T10:18:29.173Z,13.80
2019-04-01T10:20:57.864Z,13.80
2019-04-01T10:23:26.213Z,14.00
2019-04-01T10:25:54.539Z,14.10
2019-04-01T10:28:22.949Z,14.20
2019-04-01T10:30:51.359Z,14.20
2019-04-01T10:33:19.960Z,14.30
2019-04-01T10:35:48.513Z,14.40
2019-04-01T10:38:16.851Z,14.70
2019-04-01T10:40:45.505Z,14.70
2019-04-01T10:43:13.870Z,14.80
2019-04-01T10:45:42.192Z,15.00
2019-04-01T10:48:10.741Z,15.10
2019-04-01T10:50:39.156Z,15.30
2019-04-01T10:53:07.731Z,15.40
2019-04-01T10:55:36.376Z,15.50
2019-04-01T10:58:04.788Z,15.60
2019-04-01T11:00:33.535Z,15.70
2019-04-01T11:03:05.632Z,15.80
2019-04-01T11:05:32.206Z,16.00
2019-04-01T11:08:00.642Z,15.90
2019-04-01T11:10:29.095Z,15.90
2019-04-01T11:12:57.435Z,15.80
2019-04-01T11:15:26.690Z,15.70
2019-04-01T11:17:55.119Z,15.90
2019-04-01T11:20:23.442Z,16.20
2019-04-01T11:22:52.200Z,16.30
2019-04-01T11:25:20.530Z,16.60
2019-04-01T11:27:49.065Z,16.80
2019-04-01T11:30:17.399Z,17.00
2019-04-01T11:32:46.103Z,16.90
2019-04-01T11:35:16.088Z,16.90
2019-04-01T11:37:44.998Z,17.00
2019-04-01T11:40:13.510Z,17.20
2019-04-01T11:42:41.961Z,17.40
2019-04-01T11:45:10.607Z,17.70
2019-04-01T11:47:39.025Z,18.10
2019-04-01T11:50:07.681Z,18.30
2019-04-01T11:52:37.982Z,18.30
2019-04-01T11:55:06.967Z,18.50
2019-04-01T11:57:36.930Z,19.30
2019-04-01T12:00:12.763Z,20.50
2019-04-01T12:02:40.985Z,21.50
2019-04-01T12:05:09.466Z,21.70
2019-04-01T12:07:37.835Z,23.10
2019-04-01T12:10:07.634Z,24.00
2019-04-01T12:12:36.233Z,24.30
2019-04-01T12:15:05.418Z,24.20
2019-04-01T12:17:33.731Z,23.40
2019-04-01T12:20:02.238Z,23.30
2019-04-01T12:22:30.738Z,23.80
2019-04-01T12:24:59.234Z,24.50
2019-04-01T12:27:27.559Z,24.10
2019-04-01T12:29:56.246Z,24.20
2019-04-01T12:32:24.726Z,24.40
2019-04-01T12:34:53.338Z,24.70
2019-04-01T12:37:21.829Z,24.50
2019-04-01T12:39:50.181Z,24.50
2019-04-01T12:42:18.489Z,25.00
2019-04-01T12:44:47.142Z,25.50
2019-04-01T12:47:15.530Z,25.10
2019-04-01T12:49:44.048Z,24.70
2019-04-01T12:52:12.391Z,24.70
2019-04-01T12:54:40.901Z,24.90
2019-04-01T12:57:09.237Z,25.10
2019-04-01T12:59:37.902Z,25.70
2019-04-01T13:02:06.407Z,25.80
2019-04-01T13:04:36.218Z,25.40
2019-04-01T13:07:05.188Z,25.20
2019-04-01T13:09:34.260Z,25.20
2019-04-01T13:12:02.946Z,25.50
2019-04-01T13:14:31.333Z,25.70
2019-04-01T13:16:59.752Z,25.60
2019-04-01T13:19:30.135Z,25.30
2019-04-01T13:21:58.473Z,25.00
2019-04-01T13:24:26.993Z,24.80
2019-04-01T13:26:55.382Z,24.90
2019-04-01T13:29:24.178Z,24.90
2019-04-01T13:31:52.737Z,24.70
2019-04-01T13:34:21.229Z,24.40
2019-04-01T13:36:50.066Z,24.50
2019-04-01T13:39:18.833Z,24.50
2019-04-01T13:41:47.249Z,24.50
2019-04-01T13:44:15.721Z,24.50
2019-04-01T13:46:48.183Z,24.20
2019-04-01T13:49:14.648Z,24.10
2019-04-01T13:51:43.856Z,24.00
2019-04-01T13:54:12.441Z,23.70
2019-04-01T13:56:40.981Z,23.20
2019-04-01T13:59:10.020Z,22.90
2019-04-01T14:01:39.695Z,22.80
2019-04-01T14:04:08.067Z,22.60
2019-04-01T14:06:36.525Z,22.60
2019-04-01T14:09:06.485Z,22.80
2019-04-01T14:11:35.077Z,23.10
2019-04-01T14:14:03.482Z,23.50
2019-04-01T14:16:32.050Z,23.50
2019-04-01T14:19:00.640Z,23.10
2019-04-01T14:21:29.130Z,23.00
2019-04-01T14:23:57.712Z,22.60
2019-04-01T14:26:26.053Z,22.80
2019-04-01T14:28:54.401Z,22.50
2019-04-01T14:31:22.726Z,22.20
2019-04-01T14:33:51.295Z,22.10
2019-04-01T14:36:19.647Z,22.30
2019-04-01T14:38:48.291Z,22.30
2019-04-01T14:41:16.888Z,22.10
2019-04-01T14:43:45.508Z,22.10
2019-04-01T14:46:14.146Z,22.30
2019-04-01T14:48:42.559Z,22.40
2019-04-01T14:51:11.060Z,22.20
2019-04-01T14:53:39.380Z,22.20
2019-04-01T14:56:07.746Z,22.40
2019-04-01T14:58:36.291Z,22.60
2019-04-01T15:01:05.115Z,23.20
2019-04-01T15:03:33.682Z,23.70
2019-04-01T15:06:02.087Z,24.00
2019-04-01T15:08:30.569Z,24.10
2019-04-01T15:10:59.096Z,24.00
2019-04-01T15:13:27.503Z,23.90
2019-04-01T15:15:56.022Z,24.00
2019-04-01T15:18:24.340Z,23.60
2019-04-01T15:20:52.829Z,23.50
2019-04-01T15:23:24.796Z,22.90
2019-04-01T15:25:54.267Z,23.00
2019-04-01T15:28:21.628Z,22.90
2019-04-01T15:30:49.970Z,22.70
2019-04-01T15:33:18.358Z,22.20
2019-04-01T15:35:46.712Z,21.90
2019-04-01T15:38:15.207Z,21.80
2019-04-01T15:40:43.804Z,21.80
2019-04-01T15:43:12.466Z,21.70
2019-04-01T15:45:40.984Z,21.50
2019-04-01T15:48:09.309Z,21.30
2019-04-01T15:50:38.345Z,21.10
2019-04-01T15:53:06.983Z,21.00
2019-04-01T15:55:35.538Z,21.20
2019-04-01T15:58:04.055Z,21.30
2019-04-01T16:00:32.521Z,21.30
2019-04-01T16:03:01.081Z,21.10
2019-04-01T16:05:30.593Z,21.00
2019-04-01T16:07:59.507Z,20.60
2019-04-01T16:10:29.438Z,20.40
2019-04-01T16:12:58.237Z,20.20
2019-04-01T16:15:26.566Z,20.10
2019-04-01T16:17:55.162Z,19.90
2019-04-01T16:20:23.834Z,19.90
2019-04-01T16:22:52.380Z,19.80
2019-04-01T16:25:20.870Z,19.80
2019-04-01T16:27:49.376Z,19.70
2019-04-01T16:30:17.827Z,19.60
2019-04-01T16:32:46.346Z,19.50
2019-04-01T16:35:14.971Z,19.40
2019-04-01T16:37:43.524Z,19.10
2019-04-01T16:40:12.402Z,18.90
2019-04-01T16:42:41.021Z,18.60
2019-04-01T16:45:09.508Z,18.20
2019-04-01T16:47:38.196Z,17.70
2019-04-01T16:50:08.186Z,17.30
2019-04-01T16:52:36.593Z,17.10
2019-04-01T16:55:08.626Z,16.80
2019-04-01T16:57:37.151Z,16.70
2019-04-01T17:00:08.297Z,16.50
2019-04-01T17:02:36.807Z,16.30
2019-04-01T17:05:06.540Z,16.10
2019-04-01T17:07:35.250Z,15.90
2019-04-01T17:10:04.285Z,15.80
2019-04-01T17:12:33.074Z,15.70
2019-04-01T17:15:03.520Z,15.60
2019-04-01T17:17:41.527Z,15.50
2019-04-01T17:20:10.111Z,15.40
2019-04-01T17:22:38.614Z,15.30
2019-04-01T17:25:07.393Z,15.10
2019-04-01T17:27:35.744Z,15.00
2019-04-01T17:30:08.495Z,15.00
2019-04-01T17:32:37.073Z,14.90
2019-04-01T17:35:06.054Z,14.80
2019-04-01T17:37:34.394Z,14.70
2019-04-01T17:40:02.826Z,14.60
2019-04-01T17:42:31.313Z,14.60
2019-04-01T17:45:02.099Z,14.50
2019-04-01T17:47:30.500Z,14.40
2019-04-01T17:49:59.385Z,14.30
2019-04-01T17:52:29.021Z,14.20
2019-04-01T17:54:57.412Z,14.10
2019-04-01T17:57:25.754Z,14.10
2019-04-01T17:59:54.289Z,14.00
2019-04-01T18:02:25.763Z,13.90
2019-04-01T18:04:54.306Z,13.80
2019-04-01T18:07:24.412Z,13.70
2019-04-01T18:09:53.143Z,13.70
2019-04-01T18:12:21.713Z,13.60
2019-04-01T18:14:50.201Z,13.50
2019-04-01T18:17:18.755Z,13.50
2019-04-01T18:19:47.484Z,13.50
2019-04-01T18:22:15.890Z,13.60
2019-04-01T18:24:44.438Z,13.50
2019-04-01T18:27:13.045Z,13.30
2019-04-01T18:29:41.761Z,13.20
2019-04-01T18:32:10.338Z,13.10
2019-04-01T18:34:39.097Z,13.10
2019-04-01T18:37:07.544Z,13.00
2019-04-01T18:39:47.552Z,13.00
2019-04-01T18:42:06.272Z,13.00
2019-04-01T18:44:34.793Z,13.00
2019-04-01T18:47:04.018Z,12.90
2019-04-01T18:49:32.721Z,12.80
2019-04-01T18:52:01.161Z,12.60
2019-04-01T18:54:29.915Z,12.50
2019-04-01T18:56:58.668Z,12.40
2019-04-01T18:59:28.371Z,12.40
2019-04-01T19:01:56.895Z,12.30
2019-04-01T19:04:25.457Z,12.20
2019-04-01T19:06:53.948Z,12.20
2019-04-01T19:09:22.356Z,12.20
2019-04-01T19:12:03.208Z,12.20
2019-04-01T19:14:20.972Z,12.10
2019-04-01T19:16:49.558Z,11.90
2019-04-01T19:19:18.584Z,11.80
2019-04-01T19:21:47.070Z,11.80
2019-04-01T19:24:24.676Z,11.80
2019-04-01T19:26:59.619Z,11.80
2019-04-01T19:29:29.836Z,11.80
2019-04-01T19:31:58.370Z,11.70
2019-04-01T19:34:29.813Z,11.60
2019-04-01T19:36:59.865Z,11.60
2019-04-01T19:39:30.289Z,11.50
2019-04-01T19:41:58.352Z,11.40
2019-04-01T19:44:27.171Z,11.40
2019-04-01T19:46:55.598Z,11.40
2019-04-01T19:49:24.331Z,11.40
2019-04-01T19:51:52.701Z,11.40
2019-04-01T19:54:30.607Z,11.40
2019-04-01T19:56:51.132Z,11.40
2019-04-01T19:59:19.676Z,11.40
2019-04-01T20:01:48.227Z,11.30
2019-04-01T20:04:16.836Z,11.30
2019-04-01T20:06:47.175Z,11.30
2019-04-01T20:09:15.865Z,11.20
2019-04-01T20:11:44.450Z,11.20
2019-04-01T20:14:13.126Z,11.20
2019-04-01T20:16:41.645Z,11.10
2019-04-01T20:19:10.407Z,11.00
2019-04-01T20:21:38.843Z,10.90
2019-04-01T20:24:07.391Z,10.90
2019-04-01T20:26:35.990Z,10.80
2019-04-01T20:29:04.975Z,10.70
2019-04-01T20:31:33.334Z,10.60
2019-04-01T20:34:04.303Z,10.60
2019-04-01T20:36:32.271Z,10.60
2019-04-01T20:39:00.684Z,10.50
2019-04-01T20:41:29.228Z,10.40
2019-04-01T20:43:57.919Z,10.30
2019-04-01T20:46:26.326Z,10.30
2019-04-01T20:48:54.988Z,10.20
2019-04-01T20:51:23.574Z,10.20
2019-04-01T20:53:52.110Z,10.10
2019-04-01T20:56:20.560Z,10.10
2019-04-01T20:58:48.918Z,10.20
2019-04-01T21:01:17.706Z,10.10
2019-04-01T21:03:46.208Z,10.10
2019-04-01T21:06:14.730Z,10.00
2019-04-01T21:08:43.121Z,10.00
2019-04-01T21:11:11.683Z,10.00
2019-04-01T21:13:40.313Z,9.90
2019-04-01T21:16:12.315Z,10.00
2019-04-01T21:18:48.016Z,10.00
2019-04-01T21:21:17.072Z,9.90
2019-04-01T21:23:45.415Z,9.90
2019-04-01T21:26:13.914Z,10.00
2019-04-01T21:28:42.266Z,10.00
2019-04-01T21:31:10.971Z,10.00
2019-04-01T21:33:39.517Z,10.00
2019-04-01T21:36:08.016Z,10.00
2019-04-01T21:38:36.589Z,10.00
2019-04-01T21:41:04.961Z,9.90
2019-04-01T21:43:33.591Z,9.90
2019-04-01T21:46:02.203Z,9.80
2019-04-01T21:48:30.630Z,9.80
2019-04-01T21:50:59.032Z,9.80
2019-04-01T21:53:27.557Z,9.70
2019-04-01T21:55:56.046Z,9.70
2019-04-01T21:58:24.587Z,9.60
2019-04-01T22:00:53.970Z,9.60
2019-04-01T22:03:22.375Z,9.60
2019-04-01T22:05:51.037Z,9.50
2019-04-01T22:08:19.455Z,9.40
2019-04-01T22:10:48.198Z,9.40
2019-04-01T22:13:16.553Z,9.30
2019-04-01T22:15:44.981Z,9.20
2019-04-01T22:18:14.347Z,9.20
2019-04-01T22:20:43.391Z,9.10
2019-04-01T22:23:11.896Z,9.10
2019-04-01T22:25:40.243Z,9.00
2019-04-01T22:28:08.570Z,9.00
2019-04-01T22:30:36.996Z,8.90
2019-04-01T22:33:05.330Z,8.80
2019-04-01T22:35:39.030Z,8.70
2019-04-01T22:38:03.899Z,8.70
2019-04-01T22:40:32.488Z,8.80
2019-04-01T22:43:00.927Z,8.80
2019-04-01T22:45:29.316Z,8.90
2019-04-01T22:47:57.759Z,8.90
2019-04-01T22:50:26.280Z,8.90
2019-04-01T22:52:54.610Z,8.90
2019-04-01T22:55:22.947Z,8.90
2019-04-01T22:57:51.276Z,8.80
2019-04-01T23:00:19.786Z,8.80
2019-04-01T23:02:48.125Z,8.80
2019-04-01T23:05:16.644Z,8.80
2019-04-01T23:07:44.954Z,8.70
2019-04-01T23:10:13.479Z,8.70
2019-04-01T23:12:41.987Z,8.60
2019-04-01T23:15:10.961Z,8.50
2019-04-01T23:17:39.300Z,8.50
2019-04-01T23:20:07.842Z,8.40
2019-04-01T23:22:36.186Z,8.30
2019-04-01T23:25:05.436Z,8.30
2019-04-01T23:27:33.945Z,8.20
2019-04-01T23:30:02.261Z,8.10
2019-04-01T23:32:30.779Z,8.10
2019-04-01T23:34:59.441Z,8.10
2019-04-01T23:37:27.957Z,8.20
2019-04-01T23:39:56.291Z,8.20
2019-04-01T23:42:24.889Z,8.20
2019-04-01T23:44:53.559Z,8.20
2019-04-01T23:47:21.971Z,8.10
2019-04-01T23:49:50.287Z,8.10
2019-04-01T23:52:18.632Z,8.00
2019-04-01T23:54:47.208Z,8.10
2019-04-01T23:57:15.553Z,7.90
2019-04-01T23:59:44.056Z,7.80
